Central Point, OR

5:42 AM PDT on May 24, 2015 (GMT -0700)
MesoWest | | Change Station
CLOSE
Current Station
Personal Weather Station
Location: Medford, OR
Elevation: 1338 ft
Nearby Weather Stations

Elev 1338 ft 42.33 °N, 122.94 °W | Updated 11 hours ago

Partly Cloudy
Partly Cloudy
52 °F
Feels Like 52 °F
N
2
Wind Variable Wind from NW
Gusts mph

Today
High -- | Low -- °F
--% Chance of Precip.
Yesterday
High -- | Low -- °F
Precip. -- in
5:42 AM 8:35 PM
Waxing Crescent, 39% visible
Pressure 30.10 in
Visibility 10.0 miles
Clouds Overcast 3200 ft
Dew Point 47 °F
Humidity 83%
Rainfall in
Snow Depth Not available.
UV 0 out of 12
Pollen 7.50 out of 12
Air Quality Not available.
Flu Activity No Activity
METAR KMFR 241153Z AUTO 00000KT 10SM OVC032 10/08 A3011 RMK AO2 SLP192 T01000083 10144 20100 58006

More Conditions Fewer Conditions

Pressure 30.10 in
Visibility 10.0 miles
Clouds Overcast 3200 ft
Dew Point 47 °F
Humidity 83%
Rainfall in
Snow Depth Not available.
UV 0 out of 12
Pollen 7.50 out of 12
Air Quality Not available.
Flu Activity No Activity
METAR KMFR 241153Z AUTO 00000KT 10SM OVC032 10/08 A3011 RMK AO2 SLP192 T01000083 10144 20100 58006

More Conditions Fewer Conditions

10-Day Weather Forecast

Almanac

Astronomy

May. 24, 2015 Rise Set
Actual Time
Civil Twilight
Nautical Twilight
Astronomical Twilight
Moon
Length of Visible Light
Length of Day
Tomorrow will be .
, % of the Moon is Illuminated

Today's Extremes

State Highs State Lows

Community

WunderPhotos

Upload Photos

1,823,722 photos uploaded!

WunderBlogs® & News

Nearby

Air Quality

  Air Quality AQ Index Pollutant
Not available.

Snow Depth

Station Depth Elevation

Earthquake Activity

City Distance Mag. Time & Date
Minimum magnitude displayed is 2.5.

Coastal Water Temperatures

Place Temperature

Stations

Nearby Weather Stations

Station Location Temp. Windchill Dew Point Humidity Wind Precip. Elev Updated Type